createdAt,value
2019-01-23T00:01:09.763Z,98096.09
2019-01-23T00:03:37.531Z,98090.13
2019-01-23T00:06:05.339Z,98086.27
2019-01-23T00:08:33.229Z,98082.58
2019-01-23T00:11:01.042Z,98077.59
2019-01-23T00:13:31.147Z,98034.42
2019-01-23T00:15:58.894Z,98071.77
2019-01-23T00:18:26.699Z,98068.97
2019-01-23T00:20:54.531Z,98064.31
2019-01-23T00:23:22.355Z,98064.01
2019-01-23T00:25:50.150Z,98061.22
2019-01-23T00:28:17.967Z,98060.58
2019-01-23T00:30:45.804Z,98056.46
2019-01-23T00:33:13.604Z,98051.52
2019-01-23T00:35:41.424Z,98054.56
2019-01-23T00:38:24.529Z,98051.81
2019-01-23T00:40:52.320Z,98052.65
2019-01-23T00:43:20.182Z,98042.16
2019-01-23T00:45:47.995Z,98044.66
2019-01-23T00:48:15.823Z,98044.30
2019-01-23T00:50:44.147Z,98040.54
2019-01-23T00:53:11.947Z,98038.52
2019-01-23T00:55:39.737Z,98032.21
2019-01-23T00:58:12.501Z,98032.83
2019-01-23T01:00:40.330Z,98029.77
2019-01-23T01:03:08.207Z,98021.54
2019-01-23T01:05:36.062Z,98024.30
2019-01-23T01:08:43.693Z,98025.11
2019-01-23T01:11:11.519Z,98020.34
2019-01-23T01:13:39.319Z,98018.08
2019-01-23T01:16:07.117Z,98015.89
2019-01-23T01:19:10.275Z,98013.80
2019-01-23T01:21:38.094Z,98013.26
2019-01-23T01:24:05.885Z,98015.64
2019-01-23T01:26:33.681Z,98013.19
2019-01-23T01:29:01.499Z,98004.15
2019-01-23T01:31:29.310Z,97999.53
2019-01-23T01:33:57.098Z,97995.95
2019-01-23T01:36:24.913Z,97993.52
2019-01-23T01:38:59.911Z,97985.72
2019-01-23T01:41:27.712Z,97989.58
2019-01-23T01:43:55.500Z,97987.59
2019-01-23T01:46:23.314Z,97989.66
2019-01-23T01:49:10.598Z,97983.64
2019-01-23T01:51:38.377Z,97979.64
2019-01-23T01:54:06.143Z,97976.27
2019-01-23T01:56:33.936Z,97973.51
2019-01-23T01:59:02.930Z,97975.77
2019-01-23T02:01:30.922Z,97968.20
2019-01-23T02:03:58.686Z,97963.55
2019-01-23T02:06:26.531Z,97963.12
2019-01-23T02:08:54.336Z,97957.00
2019-01-23T02:11:22.154Z,97961.34
2019-01-23T02:13:49.973Z,97955.91
2019-01-23T02:16:17.749Z,97954.02
2019-01-23T02:18:45.518Z,97950.15
2019-01-23T02:21:13.295Z,97947.42
2019-01-23T02:23:41.192Z,97945.71
2019-01-23T02:26:09.083Z,97937.33
2019-01-23T02:28:37.036Z,97931.53
2019-01-23T02:31:04.875Z,97929.75
2019-01-23T02:33:32.732Z,97924.28
2019-01-23T02:36:00.551Z,97926.22
2019-01-23T02:38:28.393Z,97923.05
2019-01-23T02:40:56.188Z,97922.97
2019-01-23T02:43:23.994Z,97914.78
2019-01-23T02:45:51.866Z,97918.48
2019-01-23T02:48:19.868Z,97909.78
2019-01-23T02:50:47.689Z,97901.12
2019-01-23T02:53:15.505Z,97903.31
2019-01-23T02:55:43.263Z,97897.48
2019-01-23T02:58:11.149Z,97893.98
2019-01-23T03:00:38.936Z,97888.28
2019-01-23T03:03:06.730Z,97887.33
2019-01-23T03:05:34.527Z,97884.08
2019-01-23T03:08:12.360Z,97879.26
2019-01-23T03:10:40.164Z,97879.33
2019-01-23T03:13:07.927Z,97875.26
2019-01-23T03:15:35.702Z,97874.42
2019-01-23T03:18:28.122Z,97865.70
2019-01-23T03:20:55.913Z,97862.09
2019-01-23T03:23:23.723Z,97863.52
2019-01-23T03:25:51.521Z,97859.42
2019-01-23T03:28:19.347Z,97856.73
2019-01-23T03:30:47.163Z,97854.95
2019-01-23T03:33:38.001Z,97857.25
2019-01-23T03:36:05.729Z,97855.44
2019-01-23T03:39:06.217Z,97852.16
2019-01-23T03:41:34.123Z,97851.50
2019-01-23T03:44:01.952Z,97846.98
2019-01-23T03:46:29.756Z,97850.22
2019-01-23T03:48:57.691Z,97845.07
2019-01-23T03:51:25.506Z,97846.83
2019-01-23T03:53:55.099Z,97846.02
2019-01-23T03:56:22.923Z,97844.73
2019-01-23T03:59:45.539Z,97844.23
2019-01-23T04:02:32.776Z,97844.35
2019-01-23T04:05:00.603Z,97842.69
2019-01-23T04:07:28.354Z,97839.10
2019-01-23T04:09:56.163Z,97836.22
2019-01-23T04:12:23.987Z,97838.34
2019-01-23T04:14:51.856Z,97834.02
2019-01-23T04:17:19.694Z,97834.19
2019-01-23T04:19:47.905Z,97835.63
2019-01-23T04:22:15.684Z,97833.87
2019-01-23T04:24:43.495Z,97835.31
2019-01-23T04:27:11.299Z,97833.83
2019-01-23T04:29:39.805Z,97832.81
2019-01-23T04:32:09.787Z,97828.62
2019-01-23T04:34:37.625Z,97828.13
2019-01-23T04:37:05.538Z,97825.40
2019-01-23T04:39:33.310Z,97826.02
2019-01-23T04:42:01.058Z,97824.98
2019-01-23T04:44:28.871Z,97820.63
2019-01-23T04:46:56.684Z,97821.09
2019-01-23T04:49:24.486Z,97820.13
2019-01-23T04:52:13.568Z,97814.79
2019-01-23T04:54:39.803Z,97811.09
2019-01-23T04:57:07.585Z,97814.07
2019-01-23T04:59:35.369Z,97814.73
2019-01-23T05:02:03.176Z,97819.58
2019-01-23T05:04:30.972Z,97814.23
2019-01-23T05:06:58.778Z,97806.44
2019-01-23T05:09:26.581Z,97813.22
2019-01-23T05:11:54.406Z,97804.84
2019-01-23T05:14:22.254Z,97799.86
2019-01-23T05:16:50.122Z,97798.75
2019-01-23T05:19:17.937Z,97789.09
2019-01-23T05:21:45.757Z,97794.73
2019-01-23T05:24:13.557Z,97787.09
2019-01-23T05:26:41.326Z,97795.72
2019-01-23T05:29:09.160Z,97788.45
2019-01-23T05:31:36.955Z,97785.23
2019-01-23T05:34:04.803Z,97780.22
2019-01-23T05:36:32.666Z,97788.94
2019-01-23T05:39:25.132Z,97783.76
2019-01-23T05:41:52.899Z,97779.56
2019-01-23T05:44:40.156Z,97779.05
2019-01-23T05:47:07.910Z,97782.41
2019-01-23T05:49:35.724Z,97779.77
2019-01-23T05:52:03.472Z,97782.50
2019-01-23T05:54:31.275Z,97778.94
2019-01-23T05:56:59.092Z,97778.29
2019-01-23T05:59:26.872Z,97774.28
2019-01-23T06:02:01.657Z,97777.83
2019-01-23T06:04:34.662Z,97771.19
2019-01-23T06:07:02.456Z,97766.23
2019-01-23T06:09:30.268Z,97767.72
2019-01-23T06:11:58.075Z,97769.95
2019-01-23T06:14:27.713Z,97767.23
2019-01-23T06:16:55.502Z,97768.70
2019-01-23T06:19:23.244Z,97770.14
2019-01-23T06:21:51.057Z,97774.13
2019-01-23T06:24:18.869Z,97772.70
2019-01-23T06:26:46.683Z,97766.63
2019-01-23T06:29:29.923Z,97766.30
2019-01-23T06:32:32.668Z,97762.64
2019-01-23T06:35:02.919Z,97762.66
2019-01-23T06:37:30.199Z,97761.05
2019-01-23T06:39:58.014Z,97767.51
2019-01-23T06:42:26.895Z,97761.68
2019-01-23T06:44:54.703Z,97765.55
2019-01-23T06:47:22.515Z,97765.42
2019-01-23T06:49:50.383Z,97761.86
2019-01-23T06:52:20.284Z,97760.38
2019-01-23T06:54:48.110Z,97756.98
2019-01-23T06:57:16.027Z,97749.53
2019-01-23T06:59:43.785Z,97757.40
2019-01-23T07:02:11.662Z,97756.28
2019-01-23T07:04:39.496Z,97758.73
2019-01-23T07:07:23.066Z,97754.33
2019-01-23T07:09:50.870Z,97759.19
2019-01-23T07:12:21.025Z,97760.62
2019-01-23T07:14:48.857Z,97757.23
2019-01-23T07:17:56.695Z,97760.13
2019-01-23T07:20:43.947Z,97763.50
2019-01-23T07:23:11.730Z,97758.77
2019-01-23T07:25:39.524Z,97763.78
2019-01-23T07:28:07.697Z,97759.42
2019-01-23T07:30:39.760Z,97757.98
2019-01-23T07:33:07.608Z,97756.50
2019-01-23T07:35:35.415Z,97756.16
2019-01-23T07:38:03.520Z,97751.22
2019-01-23T07:40:31.330Z,97750.09
2019-01-23T07:42:59.161Z,97754.34
2019-01-23T07:45:27.147Z,97746.45
2019-01-23T07:48:10.074Z,97749.36
2019-01-23T07:50:37.903Z,97744.83
2019-01-23T07:53:05.701Z,97748.81
2019-01-23T07:55:33.650Z,97747.51
2019-01-23T07:58:01.411Z,97746.23
2019-01-23T08:00:31.601Z,97747.66
2019-01-23T08:03:18.352Z,97750.19
2019-01-23T08:05:46.149Z,97749.08
2019-01-23T08:08:24.043Z,97750.83
2019-01-23T08:10:51.881Z,97745.08
2019-01-23T08:13:19.785Z,97743.32
2019-01-23T08:15:47.707Z,97743.64
2019-01-23T08:18:15.721Z,97743.80
2019-01-23T08:20:43.521Z,97743.31
2019-01-23T08:23:11.315Z,97739.77
2019-01-23T08:25:39.092Z,97734.62
2019-01-23T08:28:07.030Z,97734.19
2019-01-23T08:30:38.937Z,97726.44
2019-01-23T08:33:04.855Z,97730.63
2019-01-23T08:35:32.660Z,97725.28
2019-01-23T08:38:05.783Z,97730.09
2019-01-23T08:40:33.600Z,97730.41
2019-01-23T08:43:01.387Z,97732.56
2019-01-23T08:45:29.148Z,97732.58
2019-01-23T08:47:57.171Z,97731.34
2019-01-23T08:50:32.231Z,97730.72
2019-01-23T08:53:00.062Z,97735.14
2019-01-23T08:55:27.943Z,97734.87
2019-01-23T08:57:55.886Z,97741.95
2019-01-23T09:00:23.684Z,97739.47
2019-01-23T09:02:51.532Z,97743.59
2019-01-23T09:05:19.283Z,97744.75
2019-01-23T09:07:47.239Z,97743.14
2019-01-23T09:10:18.185Z,97743.16
2019-01-23T09:12:45.988Z,97747.69
2019-01-23T09:15:14.529Z,97745.51
2019-01-23T09:17:52.558Z,97748.07
2019-01-23T09:20:20.424Z,97748.43
2019-01-23T09:22:48.252Z,97748.61
2019-01-23T09:25:18.553Z,97750.27
2019-01-23T09:27:56.425Z,97749.36
2019-01-23T09:30:44.411Z,97748.30
2019-01-23T09:33:47.362Z,97744.57
2019-01-23T09:36:53.815Z,97746.81
2019-01-23T09:40:05.650Z,97743.67
2019-01-23T09:43:25.721Z,97739.63
2019-01-23T09:46:10.918Z,97738.43
2019-01-23T09:49:20.225Z,97742.45
2019-01-23T09:52:59.370Z,97742.59
2019-01-23T09:55:27.219Z,97741.83
2019-01-23T09:58:11.208Z,97747.30
2019-01-23T10:00:39.066Z,97737.94
2019-01-23T10:03:06.930Z,97739.66
2019-01-23T10:05:34.781Z,97740.53
2019-01-23T10:08:02.783Z,97738.17
2019-01-23T10:10:30.624Z,97738.34
2019-01-23T10:12:58.430Z,97737.57
2019-01-23T10:15:32.416Z,97729.64
2019-01-23T10:18:00.290Z,97730.45
2019-01-23T10:20:28.132Z,97733.70
2019-01-23T10:22:55.918Z,97734.67
2019-01-23T10:25:25.718Z,97726.80
2019-01-23T10:27:53.576Z,97725.66
2019-01-23T10:30:21.388Z,97726.41
2019-01-23T10:32:49.282Z,97726.39
2019-01-23T10:35:17.273Z,97720.25
2019-01-23T10:37:45.086Z,97724.59
2019-01-23T10:40:14.769Z,97724.28
2019-01-23T10:42:42.620Z,97727.55
2019-01-23T10:45:11.626Z,97722.09
2019-01-23T10:47:39.582Z,97719.98
2019-01-23T10:50:09.643Z,97716.08
2019-01-23T10:52:37.409Z,97722.84
2019-01-23T10:55:06.143Z,97723.50
2019-01-23T10:57:49.085Z,97725.09
2019-01-23T11:00:18.128Z,97728.96
2019-01-23T11:02:47.395Z,97728.84
2019-01-23T11:05:18.534Z,97730.52
2019-01-23T11:07:46.503Z,97731.02
2019-01-23T11:10:33.788Z,97730.25
2019-01-23T11:13:01.558Z,97729.03
2019-01-23T11:15:29.359Z,97722.77
2019-01-23T11:17:57.471Z,97718.16
2019-01-23T11:20:44.715Z,97716.02
2019-01-23T11:23:12.493Z,97714.73
2019-01-23T11:25:40.335Z,97717.20
2019-01-23T11:28:08.277Z,97710.75
2019-01-23T11:30:36.100Z,97714.55
2019-01-23T11:33:03.938Z,97708.75
2019-01-23T11:35:31.708Z,97706.47
2019-01-23T11:37:59.685Z,97706.63
2019-01-23T11:40:29.534Z,97705.02
2019-01-23T11:42:57.465Z,97713.83
2019-01-23T11:45:25.529Z,97705.30
2019-01-23T11:47:53.492Z,97706.11
2019-01-23T11:50:23.157Z,97708.53
2019-01-23T11:52:51.729Z,97707.20
2019-01-23T11:55:19.578Z,97708.78
2019-01-23T11:57:49.679Z,97713.74
2019-01-23T12:00:20.256Z,97710.46
2019-01-23T12:02:48.074Z,97709.11
2019-01-23T12:05:18.670Z,97710.58
2019-01-23T12:07:46.825Z,97708.63
2019-01-23T12:10:17.646Z,97673.14
2019-01-23T12:12:45.498Z,97684.04
2019-01-23T12:15:16.685Z,97702.98
2019-01-23T12:17:44.442Z,97706.66
2019-01-23T12:20:12.695Z,97706.13
2019-01-23T12:22:40.540Z,97703.88
2019-01-23T12:25:08.944Z,97704.99
2019-01-23T12:27:47.133Z,97702.96
2019-01-23T12:30:28.147Z,97707.63
2019-01-23T12:32:56.040Z,97712.84
2019-01-23T12:35:23.832Z,97708.95
2019-01-23T12:37:51.647Z,97712.79
2019-01-23T12:40:19.495Z,97710.53
2019-01-23T12:43:06.759Z,97713.81
2019-01-23T12:45:34.580Z,97707.12
2019-01-23T12:48:02.540Z,97707.23
2019-01-23T12:50:31.275Z,97703.20
2019-01-23T12:52:59.191Z,97704.13
2019-01-23T12:55:26.977Z,97705.42
2019-01-23T12:57:55.164Z,97701.41
2019-01-23T13:00:26.179Z,97702.55
2019-01-23T13:02:53.989Z,97706.72
2019-01-23T13:05:22.778Z,97709.18
2019-01-23T13:07:51.367Z,97708.84
2019-01-23T13:10:19.796Z,97704.26
2019-01-23T13:12:48.205Z,97711.31
2019-01-23T13:15:19.370Z,97711.48
2019-01-23T13:17:47.362Z,97707.11
2019-01-23T13:20:16.441Z,97706.98
2019-01-23T13:22:44.363Z,97714.47
2019-01-23T13:25:15.604Z,97713.48
2019-01-23T13:28:00.909Z,97714.23
2019-01-23T13:30:28.717Z,97720.63
2019-01-23T13:32:56.511Z,97724.45
2019-01-23T13:35:31.603Z,97719.42
2019-01-23T13:38:13.829Z,97718.08
2019-01-23T13:40:41.668Z,97717.38
2019-01-23T13:43:09.435Z,97715.29
2019-01-23T13:45:37.258Z,97717.06
2019-01-23T13:48:08.212Z,97714.11
2019-01-23T13:50:36.020Z,97721.08
2019-01-23T13:53:04.266Z,97715.61
2019-01-23T13:55:32.114Z,97720.78
2019-01-23T13:58:00.521Z,97722.40
2019-01-23T14:00:35.026Z,97723.09
2019-01-23T14:03:03.619Z,97680.52
2019-01-23T14:05:31.444Z,97714.13
2019-01-23T14:08:10.161Z,97720.61
2019-01-23T14:10:37.974Z,97716.23
2019-01-23T14:13:06.412Z,97717.03
2019-01-23T14:15:36.461Z,97706.58
2019-01-23T14:18:05.333Z,97718.25
2019-01-23T14:20:33.193Z,97719.22
2019-01-23T14:23:01.008Z,97720.33
2019-01-23T14:25:28.831Z,97723.53
2019-01-23T14:27:56.662Z,97726.53
2019-01-23T14:30:44.363Z,97722.81
2019-01-23T14:33:12.188Z,97728.58
2019-01-23T14:35:42.813Z,97724.80
2019-01-23T14:38:10.810Z,97735.13
2019-01-23T14:40:38.674Z,97735.31
2019-01-23T14:43:06.790Z,97737.93
2019-01-23T14:45:34.618Z,97741.23
2019-01-23T14:48:03.017Z,97739.14
2019-01-23T14:50:30.885Z,97743.53
2019-01-23T14:52:58.731Z,97746.06
2019-01-23T14:55:26.563Z,97746.83
2019-01-23T14:57:54.402Z,97750.84
2019-01-23T15:00:24.915Z,97747.79
2019-01-23T15:02:52.678Z,97748.89
2019-01-23T15:05:20.501Z,97754.44
2019-01-23T15:07:58.802Z,97756.39
2019-01-23T15:10:29.025Z,97761.36
2019-01-23T15:12:56.825Z,97763.25
2019-01-23T15:15:24.644Z,97765.41
2019-01-23T15:17:57.493Z,97767.50
2019-01-23T15:20:31.995Z,97762.97
2019-01-23T15:22:59.821Z,97735.09
2019-01-23T15:25:47.082Z,97771.56
2019-01-23T15:28:14.975Z,97774.67
2019-01-23T15:30:42.787Z,97773.70
2019-01-23T15:33:10.593Z,97779.19
2019-01-23T15:35:38.447Z,97778.45
2019-01-23T15:38:06.591Z,97780.23
2019-01-23T15:40:36.958Z,97785.55
2019-01-23T15:43:04.813Z,97787.91
2019-01-23T15:45:32.618Z,97792.41
2019-01-23T15:48:05.629Z,97794.03
2019-01-23T15:50:33.418Z,97799.69
2019-01-23T15:53:01.236Z,97791.64
2019-01-23T15:55:32.013Z,97805.44
2019-01-23T15:57:59.863Z,97807.83
2019-01-23T16:00:30.458Z,97815.42
2019-01-23T16:02:58.308Z,97819.50
2019-01-23T16:05:26.176Z,97817.25
2019-01-23T16:07:59.097Z,97825.80
2019-01-23T16:10:28.660Z,97824.63
2019-01-23T16:12:56.487Z,97824.50
2019-01-23T16:15:25.990Z,97831.59
2019-01-23T16:17:53.833Z,97830.42
2019-01-23T16:20:21.686Z,97835.88
2019-01-23T16:22:49.562Z,97834.97
2019-01-23T16:25:17.415Z,97833.69
2019-01-23T16:27:46.414Z,97840.98
2019-01-23T16:30:19.517Z,97842.67
2019-01-23T16:32:47.351Z,97844.41
2019-01-23T16:35:15.543Z,97845.49
2019-01-23T16:37:43.992Z,97855.98
2019-01-23T16:40:11.864Z,97857.19
2019-01-23T16:42:39.658Z,97863.31
2019-01-23T16:45:08.875Z,97866.03
2019-01-23T16:47:36.700Z,97865.05
2019-01-23T16:50:13.043Z,97869.76
2019-01-23T16:52:43.171Z,97871.40
2019-01-23T16:55:11.047Z,97875.88
2019-01-23T16:57:38.838Z,97881.59
2019-01-23T17:00:09.382Z,97880.23
2019-01-23T17:02:38.804Z,97884.75
2019-01-23T17:05:12.254Z,97891.74
2019-01-23T17:07:40.380Z,97887.72
2019-01-23T17:10:12.849Z,97887.71
2019-01-23T17:12:40.646Z,97890.13
2019-01-23T17:15:09.830Z,97891.11
2019-01-23T17:17:37.654Z,97896.14
2019-01-23T17:20:09.483Z,97893.59
2019-01-23T17:22:37.291Z,97896.45
2019-01-23T17:25:07.501Z,97904.80
2019-01-23T17:27:35.346Z,97907.30
2019-01-23T17:30:04.648Z,97909.56
2019-01-23T17:32:32.443Z,97905.44
2019-01-23T17:35:00.259Z,97903.47
2019-01-23T17:37:28.145Z,97908.59
2019-01-23T17:39:55.945Z,97909.50
2019-01-23T17:42:23.760Z,97907.19
2019-01-23T17:44:51.570Z,97906.36
2019-01-23T17:47:19.778Z,97913.80
2019-01-23T17:49:47.578Z,97916.47
2019-01-23T17:52:15.391Z,97919.28
2019-01-23T17:54:43.242Z,97923.56
2019-01-23T17:57:13.094Z,97920.65
2019-01-23T17:59:40.870Z,97923.77
2019-01-23T18:02:08.675Z,97920.92
2019-01-23T18:04:36.413Z,97923.22
2019-01-23T18:07:04.256Z,97923.80
2019-01-23T18:09:32.046Z,97921.09
2019-01-23T18:11:59.870Z,97924.22
2019-01-23T18:14:27.674Z,97927.84
2019-01-23T18:16:55.470Z,97930.47
2019-01-23T18:19:23.292Z,97932.02
2019-01-23T18:21:51.159Z,97928.37
2019-01-23T18:24:18.934Z,97931.64
2019-01-23T18:26:46.773Z,97938.89
2019-01-23T18:29:25.115Z,97940.34
2019-01-23T18:32:07.662Z,97946.09
2019-01-23T18:35:32.870Z,97949.37
2019-01-23T18:38:32.640Z,97949.83
2019-01-23T18:42:03.800Z,97956.22
2019-01-23T18:45:12.679Z,97959.34
2019-01-23T18:48:16.031Z,97962.64
2019-01-23T18:51:38.778Z,97956.11
2019-01-23T18:54:15.166Z,97959.47
2019-01-23T18:56:43.026Z,97963.52
2019-01-23T18:59:20.940Z,97964.11
2019-01-23T19:01:48.835Z,97971.55
2019-01-23T19:04:16.618Z,97980.34
2019-01-23T19:06:44.440Z,97969.73
2019-01-23T19:09:13.975Z,97978.16
2019-01-23T19:11:41.930Z,97986.55
2019-01-23T19:14:09.775Z,97983.48
2019-01-23T19:16:37.598Z,97984.89
2019-01-23T19:19:05.465Z,97992.95
2019-01-23T19:21:33.317Z,97990.88
2019-01-23T19:24:01.159Z,97992.95
2019-01-23T19:26:29.037Z,97996.25
2019-01-23T19:28:56.855Z,97997.45
2019-01-23T19:31:24.808Z,97994.30
2019-01-23T19:33:52.613Z,97994.86
2019-01-23T19:36:20.463Z,97998.16
2019-01-23T19:38:48.539Z,97998.53
2019-01-23T19:41:20.534Z,97995.39
2019-01-23T19:43:48.353Z,97997.11
2019-01-23T19:46:16.250Z,97997.74
2019-01-23T19:48:44.235Z,98000.03
2019-01-23T19:51:12.058Z,98004.50
2019-01-23T19:53:39.853Z,98008.83
2019-01-23T19:56:07.654Z,98008.52
2019-01-23T19:58:35.576Z,98003.97
2019-01-23T20:01:03.954Z,97964.55
2019-01-23T20:03:40.638Z,98006.27
2019-01-23T20:06:08.447Z,98007.77
2019-01-23T20:08:36.397Z,98007.27
2019-01-23T20:11:04.363Z,98008.58
2019-01-23T20:13:32.206Z,98019.08
2019-01-23T20:16:00.121Z,98021.32
2019-01-23T20:18:28.047Z,98017.76
2019-01-23T20:20:55.908Z,98019.62
2019-01-23T20:23:23.759Z,98034.31
2019-01-23T20:25:51.618Z,98028.95
2019-01-23T20:28:24.750Z,98035.48
2019-01-23T20:30:52.691Z,98034.14
2019-01-23T20:33:27.695Z,98030.30
2019-01-23T20:35:50.251Z,98034.22
2019-01-23T20:38:18.166Z,98029.15
2019-01-23T20:40:45.998Z,98033.61
2019-01-23T20:43:13.931Z,98040.77
2019-01-23T20:45:41.800Z,98036.69
2019-01-23T20:48:10.639Z,98042.23
2019-01-23T20:50:38.444Z,98047.35
2019-01-23T20:53:25.958Z,98048.77
2019-01-23T20:55:53.823Z,98047.45
2019-01-23T20:58:21.654Z,98048.56
2019-01-23T21:00:49.452Z,98053.91
2019-01-23T21:03:17.263Z,98048.83
2019-01-23T21:05:45.113Z,98056.23
2019-01-23T21:08:12.889Z,98054.33
2019-01-23T21:10:40.739Z,98056.48
2019-01-23T21:13:08.581Z,98061.22
2019-01-23T21:15:36.404Z,98063.30
2019-01-23T21:18:08.253Z,98063.48
2019-01-23T21:20:39.459Z,98061.58
2019-01-23T21:23:09.233Z,98061.86
2019-01-23T21:25:37.069Z,98064.34
2019-01-23T21:28:04.836Z,98065.53
2019-01-23T21:30:32.661Z,98076.91
2019-01-23T21:33:00.430Z,98073.23
2019-01-23T21:35:28.596Z,98075.99
2019-01-23T21:37:56.815Z,98077.00
2019-01-23T21:40:28.976Z,98084.59
2019-01-23T21:42:56.869Z,98078.33
2019-01-23T21:45:24.670Z,98079.40
2019-01-23T21:47:52.489Z,98079.50
2019-01-23T21:50:21.670Z,98079.26
2019-01-23T21:52:57.065Z,98084.67
2019-01-23T21:55:25.174Z,98084.84
2019-01-23T21:57:53.043Z,98084.03
2019-01-23T22:00:45.051Z,98086.23
2019-01-23T22:03:12.825Z,98084.62
2019-01-23T22:05:41.541Z,98081.95
2019-01-23T22:08:14.356Z,98090.89
2019-01-23T22:10:42.156Z,98089.15
2019-01-23T22:13:10.058Z,98089.32
2019-01-23T22:15:37.873Z,98091.68
2019-01-23T22:18:10.886Z,98094.48
2019-01-23T22:20:38.692Z,98093.66
2019-01-23T22:23:06.566Z,98098.17
2019-01-23T22:25:34.327Z,98097.89
2019-01-23T22:28:02.083Z,98096.15
2019-01-23T22:30:31.108Z,98097.02
2019-01-23T22:33:00.622Z,98100.98
2019-01-23T22:35:28.410Z,98097.91
2019-01-23T22:37:56.328Z,98103.04
2019-01-23T22:40:24.474Z,98113.23
2019-01-23T22:42:52.236Z,98109.94
2019-01-23T22:45:20.579Z,98115.64
2019-01-23T22:47:58.454Z,98115.62
2019-01-23T22:50:27.750Z,98122.56
2019-01-23T22:52:55.649Z,98116.59
2019-01-23T22:55:23.441Z,98122.86
2019-01-23T22:57:51.227Z,98119.85
2019-01-23T23:00:52.413Z,98127.32
2019-01-23T23:03:20.816Z,98128.18
2019-01-23T23:05:48.889Z,98128.65
2019-01-23T23:08:16.661Z,98139.86
2019-01-23T23:10:44.473Z,98143.48
2019-01-23T23:13:12.266Z,98143.02
2019-01-23T23:15:40.068Z,98149.87
2019-01-23T23:18:07.901Z,98153.94
2019-01-23T23:20:35.890Z,98159.22
2019-01-23T23:23:04.321Z,98159.17
2019-01-23T23:25:32.086Z,98161.50
2019-01-23T23:27:59.869Z,98164.27
2019-01-23T23:30:27.845Z,98155.89
2019-01-23T23:32:55.695Z,98161.80
2019-01-23T23:35:23.454Z,98158.42
2019-01-23T23:37:56.491Z,98164.23
2019-01-23T23:40:24.240Z,98164.64
2019-01-23T23:42:52.077Z,98177.72
2019-01-23T23:45:19.850Z,98179.97
2019-01-23T23:47:47.787Z,98179.11
2019-01-23T23:50:16.140Z,98184.32
2019-01-23T23:52:43.983Z,98190.97
2019-01-23T23:55:12.248Z,98190.74
2019-01-23T23:57:46.826Z,98193.02
